KSPA

Spartanburg Downtown Memorial Airport

Spartanburg, South Carolina, USA
METAR KSPA 182335Z AUTO 22005KT 10SM SCT033 SCT055 BKN075 27/22 A2994 RMK AO2 LTG DSNT SW
Observed Flight Rules
Aug-18 @ 23:35 UTC (12 minutes ago) Visual Flight Rules
Wind Visibility Clouds
220° at 5 knots 10 miles
  • Scattered at 3,300' AGL
  • Scattered at 5,500' AGL
  • Broken at 7,500' AGL
Temperatures Readings
Current 27°C / 81°F
Dewpoint 22°C / 72°F
Humidity 74%
Altimeter 29.94" Hg
Pressure 1014 hPa
Elevation 303
METAR KSPA 182335Z AUTO 22005KT 10SM SCT033 SCT055 BKN075 27/22 A2994 RMK AO2 LTG DSNT SW
Observed Flight Rules
Aug-18 @ 23:35 UTC
(12 minutes ago)
VFR
Wind Visibility
220° at 5 knots 10 miles
Clouds
  • Scattered at 3,300' AGL
  • Scattered at 5,500' AGL
  • Broken at 7,500' AGL
Temperature Dewpoint
27°C / 81°F 22°C / 72°F
Humidity Altimeter Pressure
74% 29.94" Hg 1014 hPa